sensor_id;sensor_type;location;lat;lon;timestamp;pressure;altitude;pressure_sealevel;temperature;humidity
34177;BME280;20450;49.074;9.158;2023-04-07T00:01:38;99826.09;;;7.26;85.03
34177;BME280;20450;49.074;9.158;2023-04-07T00:04:05;99821.34;;;7.28;84.44
34177;BME280;20450;49.074;9.158;2023-04-07T00:06:32;99816.63;;;7.30;84.92
34177;BME280;20450;49.074;9.158;2023-04-07T00:08:59;99822.63;;;7.32;84.55
34177;BME280;20450;49.074;9.158;2023-04-07T00:11:27;99811.97;;;7.39;84.41
34177;BME280;20450;49.074;9.158;2023-04-07T00:13:55;99809.19;;;7.32;84.74
34177;BME280;20450;49.074;9.158;2023-04-07T00:16:22;99811.28;;;7.30;84.50
34177;BME280;20450;49.074;9.158;2023-04-07T00:18:50;99806.50;;;7.32;84.94
34177;BME280;20450;49.074;9.158;2023-04-07T00:25:13;99799.09;;;7.34;84.53
34177;BME280;20450;49.074;9.158;2023-04-07T00:28:44;99794.38;;;7.36;85.08
34177;BME280;20450;49.074;9.158;2023-04-07T00:32:19;99788.47;;;7.26;85.99
34177;BME280;20450;49.074;9.158;2023-04-07T00:35:03;99784.31;;;7.24;85.86
34177;BME280;20450;49.074;9.158;2023-04-07T00:38:24;99784.03;;;7.33;85.46
34177;BME280;20450;49.074;9.158;2023-04-07T00:41:46;99774.94;;;7.34;86.76
34177;BME280;20450;49.074;9.158;2023-04-07T00:44:22;99770.69;;;7.25;86.30
34177;BME280;20450;49.074;9.158;2023-04-07T00:46:49;99771.59;;;7.32;86.69
34177;BME280;20450;49.074;9.158;2023-04-07T00:49:16;99765.41;;;7.32;86.89
34177;BME280;20450;49.074;9.158;2023-04-07T00:51:43;99760.84;;;7.32;85.26
34177;BME280;20450;49.074;9.158;2023-04-07T00:54:12;99759.38;;;7.30;85.86
34177;BME280;20450;49.074;9.158;2023-04-07T00:56:40;99755.41;;;7.26;85.90
34177;BME280;20450;49.074;9.158;2023-04-07T00:59:10;99744.72;;;7.32;86.07
34177;BME280;20450;49.074;9.158;2023-04-07T01:01:45;99740.09;;;7.26;85.43
34177;BME280;20450;49.074;9.158;2023-04-07T01:04:24;99734.31;;;7.23;85.69
34177;BME280;20450;49.074;9.158;2023-04-07T01:07:03;99731.03;;;7.27;84.03
34177;BME280;20450;49.074;9.158;2023-04-07T01:09:46;99735.84;;;7.32;83.34
34177;BME280;20450;49.074;9.158;2023-04-07T01:12:33;99737.03;;;7.29;83.19
34177;BME280;20450;49.074;9.158;2023-04-07T01:15:09;99738.91;;;7.29;83.74
34177;BME280;20450;49.074;9.158;2023-04-07T01:17:48;99736.03;;;7.30;84.82
34177;BME280;20450;49.074;9.158;2023-04-07T01:20:22;99730.47;;;7.32;84.47
34177;BME280;20450;49.074;9.158;2023-04-07T01:23:01;99734.72;;;7.26;84.69
34177;BME280;20450;49.074;9.158;2023-04-07T01:25:53;99730.66;;;7.30;84.64
34177;BME280;20450;49.074;9.158;2023-04-07T01:28:43;99733.09;;;7.25;85.14
34177;BME280;20450;49.074;9.158;2023-04-07T01:31:25;99730.47;;;7.32;84.91
34177;BME280;20450;49.074;9.158;2023-04-07T01:33:54;99716.13;;;7.25;84.67
34177;BME280;20450;49.074;9.158;2023-04-07T01:36:25;99717.34;;;7.22;85.33
34177;BME280;20450;49.074;9.158;2023-04-07T01:38:54;99711.31;;;7.20;84.62
34177;BME280;20450;49.074;9.158;2023-04-07T01:41:22;99707.25;;;7.24;85.48
34177;BME280;20450;49.074;9.158;2023-04-07T01:43:55;99712.09;;;7.14;86.66
34177;BME280;20450;49.074;9.158;2023-04-07T01:46:26;99706.09;;;7.12;85.47
34177;BME280;20450;49.074;9.158;2023-04-07T01:48:53;99705.53;;;7.17;85.50
34177;BME280;20450;49.074;9.158;2023-04-07T01:51:22;99702.25;;;7.21;85.46
34177;BME280;20450;49.074;9.158;2023-04-07T01:53:51;99696.94;;;7.28;84.74
34177;BME280;20450;49.074;9.158;2023-04-07T01:56:19;99701.72;;;7.32;85.51
34177;BME280;20450;49.074;9.158;2023-04-07T01:58:50;99697.13;;;7.26;84.70
34177;BME280;20450;49.074;9.158;2023-04-07T02:01:20;99697.50;;;7.23;84.87
34177;BME280;20450;49.074;9.158;2023-04-07T02:03:53;99692.97;;;7.24;83.85
34177;BME280;20450;49.074;9.158;2023-04-07T02:06:29;99698.72;;;7.21;83.80
34177;BME280;20450;49.074;9.158;2023-04-07T02:09:03;99694.25;;;7.28;83.07
34177;BME280;20450;49.074;9.158;2023-04-07T02:11:35;99695.47;;;7.25;83.88
34177;BME280;20450;49.074;9.158;2023-04-07T02:14:06;99685.41;;;7.34;81.88
34177;BME280;20450;49.074;9.158;2023-04-07T02:16:51;99679.66;;;7.37;82.08
34177;BME280;20450;49.074;9.158;2023-04-07T02:19:22;99679.91;;;7.42;81.96
34177;BME280;20450;49.074;9.158;2023-04-07T02:21:50;99687.47;;;7.32;82.00
34177;BME280;20450;49.074;9.158;2023-04-07T02:24:19;99692.22;;;7.30;82.91
34177;BME280;20450;49.074;9.158;2023-04-07T02:26:47;99683.94;;;7.31;82.42
34177;BME280;20450;49.074;9.158;2023-04-07T02:29:14;99679.22;;;7.33;82.11
34177;BME280;20450;49.074;9.158;2023-04-07T02:31:42;99683.19;;;7.37;82.98
34177;BME280;20450;49.074;9.158;2023-04-07T02:34:09;99679.22;;;7.33;82.37
34177;BME280;20450;49.074;9.158;2023-04-07T02:36:39;99679.84;;;7.35;83.13
34177;BME280;20450;49.074;9.158;2023-04-07T02:39:08;99674.84;;;7.32;82.53
34177;BME280;20450;49.074;9.158;2023-04-07T02:41:35;99678.78;;;7.30;82.43
34177;BME280;20450;49.074;9.158;2023-04-07T02:44:05;99674.84;;;7.32;82.64
34177;BME280;20450;49.074;9.158;2023-04-07T02:49:49;99667.44;;;7.34;81.94
34177;BME280;20450;49.074;9.158;2023-04-07T02:52:19;99663.34;;;7.38;82.38
34177;BME280;20450;49.074;9.158;2023-04-07T02:54:46;99663.16;;;7.40;82.42
34177;BME280;20450;49.074;9.158;2023-04-07T02:57:16;99661.44;;;7.32;83.05
34177;BME280;20450;49.074;9.158;2023-04-07T02:59:43;99656.63;;;7.28;82.41
34177;BME280;20450;49.074;9.158;2023-04-07T03:02:12;99664.31;;;7.31;82.11
34177;BME280;20450;49.074;9.158;2023-04-07T03:04:39;99656.06;;;7.32;82.71
34177;BME280;20450;49.074;9.158;2023-04-07T03:11:53;99660.03;;;7.36;82.65
34177;BME280;20450;49.074;9.158;2023-04-07T03:14:20;99652.38;;;7.33;82.90
34177;BME280;20450;49.074;9.158;2023-04-07T03:16:49;99649.28;;;7.36;82.55
34177;BME280;20450;49.074;9.158;2023-04-07T03:19:16;99645.09;;;7.34;82.85
34177;BME280;20450;49.074;9.158;2023-04-07T03:21:47;99648.91;;;7.39;82.07
34177;BME280;20450;49.074;9.158;2023-04-07T03:24:14;99636.28;;;7.40;81.69
34177;BME280;20450;49.074;9.158;2023-04-07T03:26:42;99648.91;;;7.39;82.45
34177;BME280;20450;49.074;9.158;2023-04-07T03:29:19;99637.75;;;7.42;81.53
34177;BME280;20450;49.074;9.158;2023-04-07T03:31:46;99640.84;;;7.39;81.45
34177;BME280;20450;49.074;9.158;2023-04-07T03:34:16;99633.78;;;7.38;80.38
34177;BME280;20450;49.074;9.158;2023-04-07T03:36:43;99634.06;;;7.50;79.81
34177;BME280;20450;49.074;9.158;2023-04-07T03:39:10;99625.19;;;7.49;80.10
34177;BME280;20450;49.074;9.158;2023-04-07T03:41:37;99630.78;;;7.48;80.46
34177;BME280;20450;49.074;9.158;2023-04-07T03:44:04;99627.44;;;7.46;80.82
34177;BME280;20450;49.074;9.158;2023-04-07T03:46:36;99629.50;;;7.44;80.81
34177;BME280;20450;49.074;9.158;2023-04-07T03:49:03;99627.81;;;7.43;80.91
34177;BME280;20450;49.074;9.158;2023-04-07T03:51:31;99627.69;;;7.51;80.79
34177;BME280;20450;49.074;9.158;2023-04-07T03:54:00;99634.53;;;7.53;80.45
34177;BME280;20450;49.074;9.158;2023-04-07T03:56:34;99627.81;;;7.43;81.10
34177;BME280;20450;49.074;9.158;2023-04-07T03:59:01;99637.78;;;7.49;80.37
34177;BME280;20450;49.074;9.158;2023-04-07T04:01:33;99636.16;;;7.48;80.36
34177;BME280;20450;49.074;9.158;2023-04-07T04:04:09;99630.97;;;7.46;80.36
34177;BME280;20450;49.074;9.158;2023-04-07T04:06:37;99630.56;;;7.49;80.33
34177;BME280;20450;49.074;9.158;2023-04-07T04:09:27;99627.44;;;7.46;80.48
34177;BME280;20450;49.074;9.158;2023-04-07T04:12:01;99625.19;;;7.49;80.23
34177;BME280;20450;49.074;9.158;2023-04-07T04:14:30;99631.84;;;7.53;81.01
34177;BME280;20450;49.074;9.158;2023-04-07T04:17:00;99631.56;;;7.48;81.17
34177;BME280;20450;49.074;9.158;2023-04-07T04:19:40;99623.97;;;7.52;81.85
34177;BME280;20450;49.074;9.158;2023-04-07T04:22:33;99626.84;;;7.50;80.85
34177;BME280;20450;49.074;9.158;2023-04-07T04:25:00;99623.50;;;7.48;81.81
34177;BME280;20450;49.074;9.158;2023-04-07T04:27:32;99625.41;;;7.48;82.48
34177;BME280;20450;49.074;9.158;2023-04-07T04:30:16;99629.25;;;7.39;82.17
34177;BME280;20450;49.074;9.158;2023-04-07T04:32:49;99630.31;;;7.44;82.75
34177;BME280;20450;49.074;9.158;2023-04-07T04:35:22;99628.28;;;7.46;81.28
34177;BME280;20450;49.074;9.158;2023-04-07T04:38:07;99631.00;;;7.53;82.90
34177;BME280;20450;49.074;9.158;2023-04-07T04:44:02;99625.00;;;7.51;83.16
34177;BME280;20450;49.074;9.158;2023-04-07T04:46:30;99625.59;;;7.46;82.21
34177;BME280;20450;49.074;9.158;2023-04-07T04:48:57;99619.19;;;7.47;82.49
34177;BME280;20450;49.074;9.158;2023-04-07T04:51:26;99633.19;;;7.43;82.72
34177;BME280;20450;49.074;9.158;2023-04-07T04:57:17;99630.66;;;7.35;83.71
34177;BME280;20450;49.074;9.158;2023-04-07T04:59:45;99636.84;;;7.35;83.98
34177;BME280;20450;49.074;9.158;2023-04-07T05:02:12;99628.00;;;7.35;84.13
34177;BME280;20450;49.074;9.158;2023-04-07T05:04:39;99628.41;;;7.38;83.55
34177;BME280;20450;49.074;9.158;2023-04-07T05:07:18;99631.94;;;7.39;83.51
34177;BME280;20450;49.074;9.158;2023-04-07T05:09:45;99636.16;;;7.48;83.70
34177;BME280;20450;49.074;9.158;2023-04-07T05:12:15;99629.69;;;7.42;83.13
34177;BME280;20450;49.074;9.158;2023-04-07T05:14:46;99632.78;;;7.39;83.45
34177;BME280;20450;49.074;9.158;2023-04-07T05:17:13;99631.47;;;7.35;82.86
34177;BME280;20450;49.074;9.158;2023-04-07T05:19:41;99625.28;;;7.35;83.59
34177;BME280;20450;49.074;9.158;2023-04-07T05:22:22;99623.41;;;7.35;83.32
34177;BME280;20450;49.074;9.158;2023-04-07T05:24:50;99629.69;;;7.42;82.76
34177;BME280;20450;49.074;9.158;2023-04-07T05:27:18;99631.88;;;7.32;83.14
34177;BME280;20450;49.074;9.158;2023-04-07T05:29:50;99629.19;;;7.32;83.73
34177;BME280;20450;49.074;9.158;2023-04-07T05:32:28;99630.53;;;7.22;83.79
34177;BME280;20450;49.074;9.158;2023-04-07T05:38:16;99630.41;;;7.30;83.84
34177;BME280;20450;49.074;9.158;2023-04-07T05:40:45;99629.38;;;7.31;84.08
34177;BME280;20450;49.074;9.158;2023-04-07T05:43:19;99631.38;;;7.22;83.99
34177;BME280;20450;49.074;9.158;2023-04-07T05:45:46;99631.00;;;7.25;83.16
34177;BME280;20450;49.074;9.158;2023-04-07T05:48:13;99637.63;;;7.29;82.92
34177;BME280;20450;49.074;9.158;2023-04-07T05:50:43;99631.53;;;7.42;82.87
34177;BME280;20450;49.074;9.158;2023-04-07T05:53:15;99626.72;;;7.58;83.04
34177;BME280;20450;49.074;9.158;2023-04-07T05:55:42;99632.56;;;7.68;81.18
34177;BME280;20450;49.074;9.158;2023-04-07T05:58:14;99621.72;;;7.55;81.92
34177;BME280;20450;49.074;9.158;2023-04-07T06:00:46;99627.97;;;7.62;82.49
34177;BME280;20450;49.074;9.158;2023-04-07T06:03:16;99628.75;;;7.56;83.50
34177;BME280;20450;49.074;9.158;2023-04-07T06:05:53;99637.41;;;7.52;83.43
34177;BME280;20450;49.074;9.158;2023-04-07T06:08:22;99628.09;;;7.54;82.98
34177;BME280;20450;49.074;9.158;2023-04-07T06:10:50;99633.28;;;7.56;82.83
34177;BME280;20450;49.074;9.158;2023-04-07T06:13:17;99632.38;;;7.70;82.70
34177;BME280;20450;49.074;9.158;2023-04-07T06:16:09;99636.03;;;7.96;82.30
34177;BME280;20450;49.074;9.158;2023-04-07T06:19:02;99628.56;;;8.26;81.19
34177;BME280;20450;49.074;9.158;2023-04-07T06:21:30;99639.47;;;8.59;80.04
34177;BME280;20450;49.074;9.158;2023-04-07T06:23:58;99641.47;;;9.30;77.76
34177;BME280;20450;49.074;9.158;2023-04-07T06:26:26;99638.97;;;9.74;74.97
34177;BME280;20450;49.074;9.158;2023-04-07T06:28:54;99629.25;;;10.87;71.53
34177;BME280;20450;49.074;9.158;2023-04-07T06:31:21;99619.78;;;12.37;66.46
34177;BME280;20450;49.074;9.158;2023-04-07T06:33:51;99621.25;;;13.40;61.06
34177;BME280;20450;49.074;9.158;2023-04-07T06:36:19;99617.81;;;14.88;56.76
34177;BME280;20450;49.074;9.158;2023-04-07T06:38:46;99621.00;;;16.12;52.41
34177;BME280;20450;49.074;9.158;2023-04-07T06:41:15;99620.94;;;17.15;50.33
34177;BME280;20450;49.074;9.158;2023-04-07T06:43:43;99627.00;;;17.80;46.77
34177;BME280;20450;49.074;9.158;2023-04-07T06:49:54;99624.22;;;17.75;44.80
34177;BME280;20450;49.074;9.158;2023-04-07T06:52:21;99614.13;;;16.91;47.39
34177;BME280;20450;49.074;9.158;2023-04-07T06:54:48;99623.38;;;18.06;45.14
34177;BME280;20450;49.074;9.158;2023-04-07T06:57:17;99608.59;;;19.45;41.57
34177;BME280;20450;49.074;9.158;2023-04-07T06:59:44;99609.38;;;18.44;43.70
34177;BME280;20450;49.074;9.158;2023-04-07T07:02:11;99600.38;;;19.51;40.87
34177;BME280;20450;49.074;9.158;2023-04-07T07:04:38;99603.28;;;20.44;39.35
34177;BME280;20450;49.074;9.158;2023-04-07T07:07:05;99602.28;;;19.45;40.18
34177;BME280;20450;49.074;9.158;2023-04-07T07:09:32;99603.84;;;19.06;40.54
34177;BME280;20450;49.074;9.158;2023-04-07T07:11:59;99612.03;;;18.34;43.42
34177;BME280;20450;49.074;9.158;2023-04-07T07:14:29;99613.13;;;17.92;43.27
34177;BME280;20450;49.074;9.158;2023-04-07T07:16:57;99610.44;;;19.10;41.61
34177;BME280;20450;49.074;9.158;2023-04-07T07:19:24;99609.41;;;18.54;42.60
34177;BME280;20450;49.074;9.158;2023-04-07T07:21:51;99616.81;;;16.64;47.17
34177;BME280;20450;49.074;9.158;2023-04-07T07:24:18;99617.81;;;16.80;47.40
34177;BME280;20450;49.074;9.158;2023-04-07T07:26:45;99618.06;;;15.81;50.11
34177;BME280;20450;49.074;9.158;2023-04-07T07:29:12;99626.53;;;13.23;55.52
34177;BME280;20450;49.074;9.158;2023-04-07T07:31:40;99624.72;;;12.58;58.59
34177;BME280;20450;49.074;9.158;2023-04-07T07:34:09;99621.19;;;11.36;62.62
34177;BME280;20450;49.074;9.158;2023-04-07T07:36:36;99624.59;;;12.35;60.72
34177;BME280;20450;49.074;9.158;2023-04-07T07:39:03;99624.94;;;11.84;61.24
34177;BME280;20450;49.074;9.158;2023-04-07T07:41:30;99623.72;;;12.05;61.96
34177;BME280;20450;49.074;9.158;2023-04-07T07:43:57;99626.88;;;11.53;63.11
34177;BME280;20450;49.074;9.158;2023-04-07T07:46:25;99629.19;;;11.49;62.81
34177;BME280;20450;49.074;9.158;2023-04-07T07:48:53;99637.56;;;11.90;62.82
34177;BME280;20450;49.074;9.158;2023-04-07T07:51:20;99633.19;;;11.71;63.82
34177;BME280;20450;49.074;9.158;2023-04-07T07:53:47;99631.25;;;10.61;66.73
34177;BME280;20450;49.074;9.158;2023-04-07T07:56:15;99624.06;;;11.17;64.69
34177;BME280;20450;49.074;9.158;2023-04-07T07:58:42;99633.13;;;10.98;63.55
34177;BME280;20450;49.074;9.158;2023-04-07T08:01:09;99628.13;;;11.50;62.96
34177;BME280;20450;49.074;9.158;2023-04-07T08:03:36;99619.38;;;12.34;60.17
34177;BME280;20450;49.074;9.158;2023-04-07T08:06:06;99626.44;;;14.45;53.20
34177;BME280;20450;49.074;9.158;2023-04-07T08:08:33;99617.19;;;16.51;49.39
34177;BME280;20450;49.074;9.158;2023-04-07T08:11:00;99622.00;;;18.50;44.74
34177;BME280;20450;49.074;9.158;2023-04-07T08:13:27;99623.47;;;18.78;40.26
34177;BME280;20450;49.074;9.158;2023-04-07T08:15:54;99621.06;;;17.93;42.68
34177;BME280;20450;49.074;9.158;2023-04-07T08:18:21;99626.84;;;16.21;46.28
34177;BME280;20450;49.074;9.158;2023-04-07T08:20:49;99630.75;;;17.16;44.41
34177;BME280;20450;49.074;9.158;2023-04-07T08:23:17;99620.09;;;18.09;43.38
34177;BME280;20450;49.074;9.158;2023-04-07T08:25:45;99620.63;;;19.29;39.34
34177;BME280;20450;49.074;9.158;2023-04-07T08:28:12;99621.63;;;19.13;39.64
34177;BME280;20450;49.074;9.158;2023-04-07T08:30:39;99625.53;;;17.68;42.47
34177;BME280;20450;49.074;9.158;2023-04-07T08:33:06;99625.94;;;18.84;41.67
34177;BME280;20450;49.074;9.158;2023-04-07T08:35:33;99626.88;;;18.43;42.01
34177;BME280;20450;49.074;9.158;2023-04-07T08:38:00;99630.34;;;18.34;42.59
34177;BME280;20450;49.074;9.158;2023-04-07T08:40:29;99620.63;;;19.80;39.94
34177;BME280;20450;49.074;9.158;2023-04-07T08:42:58;99625.84;;;19.86;39.52
34177;BME280;20450;49.074;9.158;2023-04-07T08:45:26;99624.75;;;19.82;39.01
34177;BME280;20450;49.074;9.158;2023-04-07T08:47:58;99630.84;;;18.72;41.44
34177;BME280;20450;49.074;9.158;2023-04-07T08:50:30;99637.88;;;18.53;42.05
34177;BME280;20450;49.074;9.158;2023-04-07T08:52:59;99631.88;;;18.56;42.25
34177;BME280;20450;49.074;9.158;2023-04-07T08:55:35;99638.97;;;17.74;44.81
34177;BME280;20450;49.074;9.158;2023-04-07T08:58:03;99638.03;;;16.41;47.30
34177;BME280;20450;49.074;9.158;2023-04-07T09:00:35;99640.34;;;15.61;49.67
34177;BME280;20450;49.074;9.158;2023-04-07T09:03:03;99644.41;;;14.46;52.55
34177;BME280;20450;49.074;9.158;2023-04-07T09:05:31;99648.31;;;14.16;54.34
34177;BME280;20450;49.074;9.158;2023-04-07T09:07:59;99659.78;;;13.95;54.48
34177;BME280;20450;49.074;9.158;2023-04-07T09:10:26;99661.88;;;13.69;55.52
34177;BME280;20450;49.074;9.158;2023-04-07T09:12:57;99660.16;;;13.98;56.06
34177;BME280;20450;49.074;9.158;2023-04-07T09:15:25;99662.00;;;14.09;55.60
34177;BME280;20450;49.074;9.158;2023-04-07T09:17:55;99663.31;;;14.07;55.85
34177;BME280;20450;49.074;9.158;2023-04-07T09:20:23;99662.25;;;13.84;55.41
34177;BME280;20450;49.074;9.158;2023-04-07T09:22:51;99655.84;;;13.44;56.61
34177;BME280;20450;49.074;9.158;2023-04-07T09:25:19;99665.34;;;13.24;57.04
34177;BME280;20450;49.074;9.158;2023-04-07T09:27:57;99659.38;;;12.86;58.30
34177;BME280;20450;49.074;9.158;2023-04-07T09:30:26;99663.59;;;13.00;58.04
34177;BME280;20450;49.074;9.158;2023-04-07T09:32:55;99668.13;;;12.70;59.66
34177;BME280;20450;49.074;9.158;2023-04-07T09:35:23;99667.63;;;12.43;60.38
34177;BME280;20450;49.074;9.158;2023-04-07T09:38:02;99653.56;;;12.53;59.78
34177;BME280;20450;49.074;9.158;2023-04-07T09:40:30;99662.94;;;11.96;62.18
34177;BME280;20450;49.074;9.158;2023-04-07T09:43:00;99670.16;;;11.53;63.45
34177;BME280;20450;49.074;9.158;2023-04-07T09:45:31;99667.84;;;12.06;61.79
34177;BME280;20450;49.074;9.158;2023-04-07T09:48:05;99664.38;;;11.99;61.47
34177;BME280;20450;49.074;9.158;2023-04-07T09:50:33;99668.25;;;12.45;61.06
34177;BME280;20450;49.074;9.158;2023-04-07T09:53:02;99667.03;;;12.89;59.98
34177;BME280;20450;49.074;9.158;2023-04-07T09:55:30;99663.56;;;13.18;58.79
34177;BME280;20450;49.074;9.158;2023-04-07T09:58:01;99666.09;;;13.01;59.59
34177;BME280;20450;49.074;9.158;2023-04-07T10:00:30;99664.47;;;12.64;59.88
34177;BME280;20450;49.074;9.158;2023-04-07T10:02:57;99662.69;;;12.88;59.15
34177;BME280;20450;49.074;9.158;2023-04-07T10:05:26;99663.69;;;13.99;56.31
34177;BME280;20450;49.074;9.158;2023-04-07T10:07:54;99657.75;;;14.48;54.00
34177;BME280;20450;49.074;9.158;2023-04-07T10:10:22;99656.34;;;15.41;52.36
34177;BME280;20450;49.074;9.158;2023-04-07T10:12:52;99655.53;;;15.12;52.37
34177;BME280;20450;49.074;9.158;2023-04-07T10:15:23;99654.09;;;16.21;50.79
34177;BME280;20450;49.074;9.158;2023-04-07T10:17:52;99649.63;;;17.44;46.50
34177;BME280;20450;49.074;9.158;2023-04-07T10:20:21;99644.84;;;18.34;43.77
34177;BME280;20450;49.074;9.158;2023-04-07T10:22:51;99645.59;;;17.51;44.48
34177;BME280;20450;49.074;9.158;2023-04-07T10:25:24;99644.22;;;17.22;45.08
34177;BME280;20450;49.074;9.158;2023-04-07T10:27:54;99653.78;;;17.51;45.12
34177;BME280;20450;49.074;9.158;2023-04-07T10:30:29;99645.25;;;18.11;43.91
34177;BME280;20450;49.074;9.158;2023-04-07T10:32:58;99644.34;;;17.64;46.30
34177;BME280;20450;49.074;9.158;2023-04-07T10:35:25;99643.94;;;17.24;45.97
34177;BME280;20450;49.074;9.158;2023-04-07T10:38:11;99641.31;;;17.07;46.58
34177;BME280;20450;49.074;9.158;2023-04-07T10:40:40;99645.91;;;17.28;47.21
34177;BME280;20450;49.074;9.158;2023-04-07T10:43:08;99645.22;;;17.16;46.60
34177;BME280;20450;49.074;9.158;2023-04-07T10:45:56;99647.75;;;16.75;47.43
34177;BME280;20450;49.074;9.158;2023-04-07T10:48:23;99652.34;;;16.31;48.97
34177;BME280;20450;49.074;9.158;2023-04-07T10:51:11;99650.00;;;16.40;47.94
34177;BME280;20450;49.074;9.158;2023-04-07T10:57:11;99647.19;;;15.97;48.30
34177;BME280;20450;49.074;9.158;2023-04-07T10:59:41;99645.69;;;16.60;47.59
34177;BME280;20450;49.074;9.158;2023-04-07T11:02:32;99642.31;;;16.75;47.75
34177;BME280;20450;49.074;9.158;2023-04-07T11:05:01;99653.75;;;16.98;46.96
34177;BME280;20450;49.074;9.158;2023-04-07T11:07:46;99639.94;;;16.83;47.54
34177;BME280;20450;49.074;9.158;2023-04-07T11:10:16;99644.19;;;16.96;47.62
34177;BME280;20450;49.074;9.158;2023-04-07T11:12:43;99654.03;;;16.97;47.87
34177;BME280;20450;49.074;9.158;2023-04-07T11:15:24;99643.66;;;16.72;48.29
34177;BME280;20450;49.074;9.158;2023-04-07T11:18:09;99636.75;;;16.65;47.74
34177;BME280;20450;49.074;9.158;2023-04-07T11:20:46;99643.06;;;16.70;48.57
34177;BME280;20450;49.074;9.158;2023-04-07T11:23:15;99638.75;;;16.74;47.65
34177;BME280;20450;49.074;9.158;2023-04-07T11:25:45;99638.97;;;15.58;49.22
34177;BME280;20450;49.074;9.158;2023-04-07T11:28:13;99644.66;;;14.45;51.98
34177;BME280;20450;49.074;9.158;2023-04-07T11:30:47;99637.50;;;14.55;53.26
34177;BME280;20450;49.074;9.158;2023-04-07T11:33:18;99639.31;;;14.89;52.12
34177;BME280;20450;49.074;9.158;2023-04-07T11:35:52;99651.34;;;15.21;51.20
34177;BME280;20450;49.074;9.158;2023-04-07T11:38:22;99647.03;;;15.37;51.21
34177;BME280;20450;49.074;9.158;2023-04-07T11:40:50;99645.28;;;15.47;50.02
34177;BME280;20450;49.074;9.158;2023-04-07T11:43:19;99651.03;;;15.34;50.36
34177;BME280;20450;49.074;9.158;2023-04-07T11:46:07;99649.75;;;15.37;50.47
34177;BME280;20450;49.074;9.158;2023-04-07T11:48:38;99657.25;;;15.46;51.26
34177;BME280;20450;49.074;9.158;2023-04-07T11:51:14;99654.91;;;15.66;50.71
34177;BME280;20450;49.074;9.158;2023-04-07T11:53:43;99656.13;;;15.76;51.00
34177;BME280;20450;49.074;9.158;2023-04-07T11:56:13;99662.06;;;15.73;50.07
34177;BME280;20450;49.074;9.158;2023-04-07T11:58:46;99662.81;;;15.85;50.00
34177;BME280;20450;49.074;9.158;2023-04-07T12:01:13;99659.41;;;16.11;48.04
34177;BME280;20450;49.074;9.158;2023-04-07T12:03:56;99655.91;;;16.32;47.05
34177;BME280;20450;49.074;9.158;2023-04-07T12:06:28;99657.97;;;16.25;47.01
34177;BME280;20450;49.074;9.158;2023-04-07T12:08:56;99657.91;;;16.20;46.85
34177;BME280;20450;49.074;9.158;2023-04-07T12:11:23;99653.75;;;15.34;48.82
34177;BME280;20450;49.074;9.158;2023-04-07T12:13:50;99655.41;;;15.35;49.94
34177;BME280;20450;49.074;9.158;2023-04-07T12:16:18;99653.97;;;14.88;51.39
34177;BME280;20450;49.074;9.158;2023-04-07T12:18:48;99646.03;;;15.15;50.27
34177;BME280;20450;49.074;9.158;2023-04-07T12:21:18;99653.47;;;14.91;50.81
34177;BME280;20450;49.074;9.158;2023-04-07T12:24:01;99649.34;;;14.61;50.57
34177;BME280;20450;49.074;9.158;2023-04-07T12:26:28;99656.41;;;14.62;51.25
34177;BME280;20450;49.074;9.158;2023-04-07T12:28:55;99656.84;;;14.82;50.88
34177;BME280;20450;49.074;9.158;2023-04-07T12:31:22;99654.84;;;15.05;51.28
34177;BME280;20450;49.074;9.158;2023-04-07T12:33:49;99658.72;;;15.37;49.23
34177;BME280;20450;49.074;9.158;2023-04-07T12:36:18;99649.34;;;15.61;48.73
34177;BME280;20450;49.074;9.158;2023-04-07T12:38:45;99656.44;;;15.79;48.13
34177;BME280;20450;49.074;9.158;2023-04-07T12:41:12;99661.41;;;15.82;48.17
34177;BME280;20450;49.074;9.158;2023-04-07T12:43:39;99656.44;;;15.96;47.61
34177;BME280;20450;49.074;9.158;2023-04-07T12:46:06;99655.19;;;16.03;46.82
34177;BME280;20450;49.074;9.158;2023-04-07T12:48:33;99648.53;;;15.77;46.91
34177;BME280;20450;49.074;9.158;2023-04-07T12:51:00;99653.22;;;15.82;47.44
34177;BME280;20450;49.074;9.158;2023-04-07T12:53:28;99650.84;;;16.02;47.04
34177;BME280;20450;49.074;9.158;2023-04-07T12:55:55;99649.75;;;15.53;47.18
34177;BME280;20450;49.074;9.158;2023-04-07T12:58:23;99648.63;;;15.83;48.40
34177;BME280;20450;49.074;9.158;2023-04-07T13:00:50;99653.53;;;16.19;46.97
34177;BME280;20450;49.074;9.158;2023-04-07T13:03:17;99651.50;;;15.93;45.45
34177;BME280;20450;49.074;9.158;2023-04-07T13:05:45;99658.63;;;15.77;46.39
34177;BME280;20450;49.074;9.158;2023-04-07T13:08:12;99650.31;;;16.22;45.83
34177;BME280;20450;49.074;9.158;2023-04-07T13:10:41;99655.91;;;16.32;45.59
34177;BME280;20450;49.074;9.158;2023-04-07T13:13:08;99656.94;;;15.76;46.23
34177;BME280;20450;49.074;9.158;2023-04-07T13:15:35;99651.22;;;15.44;47.07
34177;BME280;20450;49.074;9.158;2023-04-07T13:18:02;99646.56;;;15.28;47.54
34177;BME280;20450;49.074;9.158;2023-04-07T13:20:29;99648.91;;;15.36;48.24
34177;BME280;20450;49.074;9.158;2023-04-07T13:22:56;99645.72;;;15.39;49.16
34177;BME280;20450;49.074;9.158;2023-04-07T13:25:35;99647.53;;;15.67;46.97
34177;BME280;20450;49.074;9.158;2023-04-07T13:28:03;99642.81;;;15.96;46.67
34177;BME280;20450;49.074;9.158;2023-04-07T13:30:30;99643.13;;;16.16;47.22
34177;BME280;20450;49.074;9.158;2023-04-07T13:32:57;99650.00;;;16.02;45.07
34177;BME280;20450;49.074;9.158;2023-04-07T13:35:27;99652.47;;;15.87;44.97
34177;BME280;20450;49.074;9.158;2023-04-07T13:37:54;99654.81;;;15.95;46.63
34177;BME280;20450;49.074;9.158;2023-04-07T13:40:21;99659.25;;;16.01;47.43
34177;BME280;20450;49.074;9.158;2023-04-07T13:42:48;99653.63;;;15.91;48.43
34177;BME280;20450;49.074;9.158;2023-04-07T13:45:16;99660.09;;;15.51;51.32
34177;BME280;20450;49.074;9.158;2023-04-07T13:47:44;99654.94;;;15.10;53.40
34177;BME280;20450;49.074;9.158;2023-04-07T13:50:11;99655.81;;;14.60;54.79
34177;BME280;20450;49.074;9.158;2023-04-07T13:52:38;99661.09;;;14.38;56.78
34177;BME280;20450;49.074;9.158;2023-04-07T13:55:05;99666.41;;;13.99;60.20